createdAt,value
2022-11-05T00:00:31.010Z,100959.78
2022-11-05T00:03:18.082Z,100959.00
2022-11-05T00:06:04.201Z,100958.91
2022-11-05T00:08:49.913Z,100947.59
2022-11-05T00:11:18.588Z,100909.31
2022-11-05T00:14:04.247Z,100945.81
2022-11-05T00:16:46.986Z,100925.59
2022-11-05T00:19:16.873Z,100888.44
2022-11-05T00:22:02.057Z,100864.28
2022-11-05T00:24:47.825Z,100930.88
2022-11-05T00:27:15.715Z,100922.88
2022-11-05T00:29:43.877Z,100941.31
2022-11-05T00:32:11.729Z,100878.19
2022-11-05T00:34:42.458Z,100932.66
2022-11-05T00:37:10.494Z,100929.22
2022-11-05T00:39:38.361Z,100944.91
2022-11-05T00:42:23.985Z,100932.72
2022-11-05T00:45:04.237Z,100888.19
2022-11-05T00:47:50.708Z,100901.53
2022-11-05T00:50:21.228Z,100921.00
2022-11-05T00:52:57.893Z,100923.97
2022-11-05T00:55:29.111Z,100930.09
2022-11-05T00:57:58.324Z,100934.50
2022-11-05T01:00:28.486Z,100928.44
2022-11-05T01:03:00.039Z,100937.22
2022-11-05T01:05:33.414Z,100923.25
2022-11-05T01:08:02.195Z,100918.06
2022-11-05T01:10:30.818Z,100926.84
2022-11-05T01:12:59.203Z,100888.72
2022-11-05T01:15:27.285Z,100928.69
2022-11-05T01:17:55.263Z,100913.72
2022-11-05T01:20:23.299Z,100919.16
2022-11-05T01:22:52.524Z,100929.69
2022-11-05T01:25:20.508Z,100933.19
2022-11-05T01:27:48.507Z,100910.22
2022-11-05T01:30:16.650Z,100924.44
2022-11-05T01:32:44.642Z,100929.78
2022-11-05T01:35:15.143Z,100912.78
2022-11-05T01:37:43.573Z,100921.94
2022-11-05T01:40:15.126Z,100920.16
2022-11-05T01:42:43.825Z,100904.03
2022-11-05T01:45:18.077Z,100916.59
2022-11-05T01:48:05.125Z,100772.34
2022-11-05T01:50:44.376Z,100915.66
2022-11-05T01:53:22.088Z,100912.94
2022-11-05T01:55:58.874Z,100913.75
2022-11-05T01:58:35.971Z,100898.00
2022-11-05T02:01:04.222Z,100896.19
2022-11-05T02:03:36.039Z,100857.88
2022-11-05T02:06:04.994Z,100790.94
2022-11-05T02:08:46.582Z,100898.75
2022-11-05T02:11:20.144Z,100886.56
2022-11-05T02:13:49.123Z,100898.75
2022-11-05T02:16:29.264Z,100889.22
2022-11-05T02:19:08.052Z,100879.59
2022-11-05T02:21:59.219Z,100885.66
2022-11-05T02:24:54.790Z,100883.88
2022-11-05T02:27:42.239Z,100884.66
2022-11-05T02:30:33.940Z,100890.75
2022-11-05T02:33:23.211Z,100828.59
2022-11-05T02:36:14.987Z,100867.66
2022-11-05T02:38:57.443Z,100795.50
2022-11-05T02:41:32.092Z,100853.19
2022-11-05T02:44:11.538Z,100777.72
2022-11-05T02:46:52.581Z,100789.28
2022-11-05T02:49:34.661Z,100900.84
2022-11-05T02:52:07.895Z,100805.13
2022-11-05T02:54:43.311Z,100891.22
2022-11-05T02:57:11.272Z,100898.28
2022-11-05T02:59:39.251Z,100894.84
2022-11-05T03:02:08.764Z,100893.16
2022-11-05T03:04:38.940Z,100899.28
2022-11-05T03:07:28.035Z,100897.59
2022-11-05T03:10:24.699Z,100894.97
2022-11-05T03:13:03.324Z,100898.50
2022-11-05T03:15:48.720Z,100901.94
2022-11-05T03:18:25.251Z,100903.63
2022-11-05T03:21:01.891Z,100888.59
2022-11-05T03:23:37.200Z,100886.94
2022-11-05T03:26:11.643Z,100877.97
2022-11-05T03:28:44.149Z,100878.81
2022-11-05T03:31:15.580Z,100905.41
2022-11-05T03:33:46.692Z,100909.75
2022-11-05T03:36:20.859Z,100903.66
2022-11-05T03:38:55.398Z,100909.00
2022-11-05T03:41:29.220Z,100907.34
2022-11-05T03:43:59.891Z,100875.16
2022-11-05T03:46:31.906Z,100876.31
2022-11-05T03:49:05.788Z,100875.38
2022-11-05T03:51:40.035Z,100906.53
2022-11-05T03:54:08.383Z,100907.50
2022-11-05T03:56:41.063Z,100899.28
2022-11-05T03:59:12.113Z,100841.56
2022-11-05T04:01:40.815Z,100918.06
2022-11-05T04:04:10.813Z,100922.47
2022-11-05T04:06:56.106Z,100900.41
2022-11-05T04:09:41.333Z,100920.78
2022-11-05T04:12:27.679Z,100912.09
2022-11-05T04:14:55.649Z,100919.06
2022-11-05T04:17:22.463Z,100863.13
2022-11-05T04:20:08.890Z,100913.03
2022-11-05T04:22:55.226Z,100888.38
2022-11-05T04:25:24.059Z,100878.66
2022-11-05T04:27:52.373Z,100894.72
2022-11-05T04:30:19.829Z,100892.97
2022-11-05T04:32:58.767Z,100898.22
2022-11-05T04:35:29.039Z,100889.47
2022-11-05T04:38:00.376Z,100888.63
2022-11-05T04:40:28.646Z,100888.63
2022-11-05T04:42:57.285Z,100894.75
2022-11-05T04:45:26.171Z,100885.88
2022-11-05T04:47:54.038Z,100889.47
2022-11-05T04:50:22.138Z,100812.06
2022-11-05T04:52:51.847Z,100895.53
2022-11-05T04:55:21.157Z,100871.59
2022-11-05T04:57:50.458Z,100882.31
2022-11-05T05:00:19.654Z,100879.53
2022-11-05T05:02:47.982Z,100836.13
2022-11-05T05:05:16.088Z,100874.31
2022-11-05T05:07:44.463Z,100854.69
2022-11-05T05:10:13.846Z,100884.03
2022-11-05T05:12:41.735Z,100877.84
2022-11-05T05:15:10.023Z,100888.44
2022-11-05T05:17:37.892Z,100877.06
2022-11-05T05:20:24.035Z,100836.22
2022-11-05T05:22:55.893Z,100878.84
2022-11-05T05:25:25.159Z,100873.56
2022-11-05T05:27:57.807Z,100878.84
2022-11-05T05:30:26.104Z,100874.50
2022-11-05T05:32:53.970Z,100872.72
2022-11-05T05:35:21.947Z,100878.00
2022-11-05T05:37:49.764Z,100874.50
2022-11-05T05:40:17.810Z,100850.59
2022-11-05T05:42:47.159Z,100856.81
2022-11-05T05:45:15.036Z,100859.63
2022-11-05T05:47:42.840Z,100872.72
2022-11-05T05:50:10.759Z,100874.44
2022-11-05T05:52:38.619Z,100844.53
2022-11-05T05:55:07.282Z,100871.78
2022-11-05T05:57:35.891Z,100751.00
2022-11-05T06:00:06.491Z,100843.22
2022-11-05T06:02:34.436Z,100855.84
2022-11-05T06:05:02.484Z,100877.03
2022-11-05T06:07:35.955Z,100871.78
2022-11-05T06:10:06.275Z,100876.13
2022-11-05T06:12:34.179Z,100873.41
2022-11-05T06:15:02.029Z,100871.63
2022-11-05T06:17:31.332Z,100878.59
2022-11-05T06:19:59.330Z,100868.06
2022-11-05T06:22:27.216Z,100873.31
2022-11-05T06:24:55.176Z,100857.47
2022-11-05T06:27:23.053Z,100807.56
2022-11-05T06:29:50.895Z,100873.31
2022-11-05T06:32:18.777Z,100868.88
2022-11-05T06:34:48.123Z,100878.44
2022-11-05T06:37:16.012Z,100858.88
2022-11-05T06:39:43.999Z,100843.97
2022-11-05T06:42:18.237Z,100849.31
2022-11-05T06:44:46.992Z,100863.63
2022-11-05T06:47:14.876Z,100819.88
2022-11-05T06:49:42.732Z,100867.97
2022-11-05T06:52:12.068Z,100798.69
2022-11-05T06:54:40.207Z,100863.63
2022-11-05T06:57:09.633Z,100866.25
2022-11-05T06:59:37.582Z,100861.84
2022-11-05T07:02:06.317Z,100864.47
2022-11-05T07:04:34.582Z,100874.94
2022-11-05T07:07:04.867Z,100868.81
2022-11-05T07:09:34.187Z,100880.13
2022-11-05T07:12:02.058Z,100855.47
2022-11-05T07:14:29.986Z,100873.16
2022-11-05T07:16:58.605Z,100837.50
2022-11-05T07:19:26.430Z,100867.09
2022-11-05T07:21:54.228Z,100863.63
2022-11-05T07:24:22.145Z,100866.25
2022-11-05T07:26:51.398Z,100865.38
2022-11-05T07:29:19.193Z,100868.88
2022-11-05T07:31:47.671Z,100816.34
2022-11-05T07:34:15.598Z,100880.22
2022-11-05T07:36:43.437Z,100879.44
2022-11-05T07:39:11.263Z,100863.31
2022-11-05T07:41:39.088Z,100865.41
2022-11-05T07:44:08.543Z,100867.19
2022-11-05T07:46:36.552Z,100853.84
2022-11-05T07:49:04.884Z,100870.69
2022-11-05T07:51:32.736Z,100870.69
2022-11-05T07:54:00.767Z,100863.72
2022-11-05T07:56:28.631Z,100868.06
2022-11-05T07:58:56.493Z,100872.47
2022-11-05T08:01:26.165Z,100806.72
2022-11-05T08:03:54.121Z,100741.97
2022-11-05T08:06:21.975Z,100869.84
2022-11-05T08:08:49.985Z,100857.59
2022-11-05T08:11:18.908Z,100838.94
2022-11-05T08:13:46.745Z,100818.59
2022-11-05T08:16:15.574Z,100844.38
2022-11-05T08:18:44.876Z,100815.94
2022-11-05T08:21:12.785Z,100856.81
2022-11-05T08:23:42.581Z,100849.03
2022-11-05T08:26:11.394Z,100857.72
2022-11-05T08:28:39.244Z,100843.59
2022-11-05T08:31:07.213Z,100814.16
2022-11-05T08:33:35.253Z,100848.03
2022-11-05T08:36:05.837Z,100836.69
2022-11-05T08:38:33.949Z,100821.56
2022-11-05T08:41:01.889Z,100826.19
2022-11-05T08:43:29.971Z,100825.31
2022-11-05T08:45:58.006Z,100809.50
2022-11-05T08:48:25.971Z,100823.84
2022-11-05T08:50:54.009Z,100810.66
2022-11-05T08:53:23.268Z,100817.59
2022-11-05T08:55:51.647Z,100791.88
2022-11-05T08:58:20.790Z,100809.59
2022-11-05T09:00:50.971Z,100812.38
2022-11-05T09:03:19.540Z,100788.56
2022-11-05T09:05:47.776Z,100787.63
2022-11-05T09:08:17.752Z,100801.06
2022-11-05T09:10:49.930Z,100790.25
2022-11-05T09:13:19.745Z,100722.84
2022-11-05T09:15:48.755Z,100800.13
2022-11-05T09:18:17.359Z,100804.47
2022-11-05T09:20:45.530Z,100800.97
2022-11-05T09:23:15.494Z,100800.13
2022-11-05T09:25:43.568Z,100726.34
2022-11-05T09:28:16.890Z,100791.34
2022-11-05T09:30:46.392Z,100794.81
2022-11-05T09:33:15.490Z,100793.06
2022-11-05T09:35:43.930Z,100792.13
2022-11-05T09:38:11.976Z,100793.81
2022-11-05T09:40:45.999Z,100789.41
2022-11-05T09:43:19.173Z,100797.22
2022-11-05T09:45:49.326Z,100787.59
2022-11-05T09:48:21.381Z,100768.03
2022-11-05T09:50:51.644Z,100751.03
2022-11-05T09:53:21.070Z,100785.72
2022-11-05T09:55:52.657Z,100702.09
2022-11-05T09:58:29.027Z,100783.06
2022-11-05T10:00:58.243Z,100781.13
2022-11-05T10:03:30.597Z,100773.97
2022-11-05T10:06:10.045Z,100780.81
2022-11-05T10:08:43.365Z,100709.59
2022-11-05T10:11:16.773Z,100761.03
2022-11-05T10:13:48.944Z,100768.13
2022-11-05T10:16:25.343Z,100775.88
2022-11-05T10:18:58.340Z,100772.22
2022-11-05T10:21:51.450Z,100711.53
2022-11-05T10:24:16.412Z,100746.97
2022-11-05T10:26:46.563Z,100771.66
2022-11-05T10:29:21.509Z,100767.22
2022-11-05T10:31:49.885Z,100763.56
2022-11-05T10:34:21.076Z,100743.00
2022-11-05T10:36:49.448Z,100766.75
2022-11-05T10:39:20.055Z,100759.69
2022-11-05T10:42:04.050Z,100722.25
2022-11-05T10:44:40.723Z,100754.34
2022-11-05T10:47:44.897Z,100749.13
2022-11-05T10:50:15.577Z,100749.13
2022-11-05T10:52:54.887Z,100743.06
2022-11-05T10:55:26.043Z,100723.41
2022-11-05T10:57:54.899Z,100738.66
2022-11-05T11:00:28.417Z,100739.59
2022-11-05T11:02:59.474Z,100744.00
2022-11-05T11:05:30.099Z,100736.16
2022-11-05T11:08:02.618Z,100718.69
2022-11-05T11:10:33.977Z,100711.75
2022-11-05T11:13:02.137Z,100702.56
2022-11-05T11:15:35.238Z,100721.22
2022-11-05T11:18:27.403Z,100714.22
2022-11-05T11:21:05.643Z,100721.09
2022-11-05T11:23:38.414Z,100644.94
2022-11-05T11:26:07.410Z,100717.72
2022-11-05T11:28:38.686Z,100715.94
2022-11-05T11:31:10.716Z,100660.03
2022-11-05T11:33:40.569Z,100712.44
2022-11-05T11:36:10.964Z,100707.19
2022-11-05T11:38:39.962Z,100657.47
2022-11-05T11:41:25.181Z,100703.91
2022-11-05T11:43:58.423Z,100703.03
2022-11-05T11:46:33.438Z,100703.03
2022-11-05T11:49:02.155Z,100700.34
2022-11-05T11:51:37.681Z,100690.75
2022-11-05T11:54:06.311Z,100701.13
2022-11-05T11:56:44.849Z,100695.84
2022-11-05T11:59:40.438Z,100690.63
2022-11-05T12:02:34.009Z,100661.28
2022-11-05T12:05:18.188Z,100690.69
2022-11-05T12:07:52.901Z,100691.53
2022-11-05T12:10:37.983Z,100676.72
2022-11-05T12:13:34.344Z,100652.75
2022-11-05T12:16:12.654Z,100675.06
2022-11-05T12:18:48.828Z,100668.94
2022-11-05T12:21:47.688Z,100649.50
2022-11-05T12:24:30.392Z,100620.47
2022-11-05T12:27:09.514Z,100592.03
2022-11-05T12:29:52.349Z,100651.59
2022-11-05T12:32:46.889Z,100638.47
2022-11-05T12:35:29.602Z,100645.63
2022-11-05T12:38:06.990Z,100640.44
2022-11-05T12:40:45.102Z,100617.53
2022-11-05T12:43:23.325Z,100641.44
2022-11-05T12:45:57.349Z,100631.09
2022-11-05T12:48:43.195Z,100625.91
2022-11-05T12:51:24.941Z,100624.13
2022-11-05T12:54:05.884Z,100627.63
2022-11-05T12:56:38.120Z,100560.03
2022-11-05T12:59:17.960Z,100635.41
2022-11-05T13:01:50.263Z,100619.59
2022-11-05T13:04:30.206Z,100616.13
2022-11-05T13:07:04.227Z,100566.50
2022-11-05T13:09:37.491Z,100613.56
2022-11-05T13:12:09.215Z,100588.81
2022-11-05T13:14:44.468Z,100614.50
2022-11-05T13:17:16.563Z,100607.47
2022-11-05T13:19:53.491Z,100586.94
2022-11-05T13:22:32.204Z,100619.59
2022-11-05T13:25:05.820Z,100608.19
2022-11-05T13:27:51.946Z,100607.31
2022-11-05T13:30:23.122Z,100606.44
2022-11-05T13:32:58.166Z,100605.59
2022-11-05T13:35:30.960Z,100594.19
2022-11-05T13:38:23.431Z,100606.38
2022-11-05T13:41:03.380Z,100586.31
2022-11-05T13:43:48.048Z,100593.25
2022-11-05T13:46:41.132Z,100585.31
2022-11-05T13:49:46.195Z,100604.44
2022-11-05T13:52:36.778Z,100588.78
2022-11-05T13:55:22.764Z,100588.81
2022-11-05T13:58:10.519Z,100552.50
2022-11-05T14:00:45.292Z,100572.00
2022-11-05T14:03:19.216Z,100567.66
2022-11-05T14:05:55.183Z,100550.81
2022-11-05T14:08:28.771Z,100580.09
2022-11-05T14:11:04.318Z,100573.09
2022-11-05T14:13:37.085Z,100528.69
2022-11-05T14:16:09.144Z,100580.97
2022-11-05T14:18:40.993Z,100568.75
2022-11-05T14:21:31.964Z,100512.97
2022-11-05T14:24:01.259Z,100569.75
2022-11-05T14:26:33.212Z,100568.84
2022-11-05T14:29:26.159Z,100549.44
2022-11-05T14:32:14.621Z,100567.19
2022-11-05T14:34:46.251Z,100436.78
2022-11-05T14:37:30.853Z,100558.44
2022-11-05T14:40:24.336Z,100483.91
2022-11-05T14:42:56.076Z,100529.97
2022-11-05T14:45:29.744Z,100563.59
2022-11-05T14:47:59.543Z,100539.44
2022-11-05T14:50:34.681Z,100554.00
2022-11-05T14:53:11.425Z,100536.31
2022-11-05T14:55:42.655Z,100547.06
2022-11-05T14:58:30.883Z,100527.66
2022-11-05T15:01:00.141Z,100547.06
2022-11-05T15:04:00.583Z,100542.78
2022-11-05T15:06:31.899Z,100513.75
2022-11-05T15:09:12.902Z,100528.03
2022-11-05T15:11:44.176Z,100527.22
2022-11-05T15:14:22.507Z,100529.00
2022-11-05T15:16:53.453Z,100516.53
2022-11-05T15:19:25.549Z,100488.25
2022-11-05T15:21:57.798Z,100533.50
2022-11-05T15:24:28.798Z,100519.44
2022-11-05T15:27:03.961Z,100525.69
2022-11-05T15:29:34.433Z,100524.00
2022-11-05T15:32:03.113Z,100524.06
2022-11-05T15:34:32.783Z,100478.84
2022-11-05T15:37:02.760Z,100504.66
2022-11-05T15:39:34.147Z,100522.50
2022-11-05T15:42:07.080Z,100482.81
2022-11-05T15:44:41.155Z,100482.63
2022-11-05T15:47:26.313Z,100513.00
2022-11-05T15:49:56.617Z,100525.25
2022-11-05T15:52:33.807Z,100526.19
2022-11-05T15:55:31.852Z,100525.41
2022-11-05T15:58:03.126Z,100502.44
2022-11-05T16:00:39.573Z,100524.66
2022-11-05T16:03:25.426Z,100497.25
2022-11-05T16:05:54.612Z,100486.63
2022-11-05T16:08:24.877Z,100514.19
2022-11-05T16:10:54.757Z,100524.66
2022-11-05T16:13:29.824Z,100520.25
2022-11-05T16:16:01.475Z,100521.09
2022-11-05T16:18:34.360Z,100525.41
2022-11-05T16:21:04.855Z,100523.63
2022-11-05T16:23:45.135Z,100520.94
2022-11-05T16:29:29.286Z,100505.56
2022-11-05T16:32:00.059Z,100521.63
2022-11-05T16:34:31.066Z,100500.88
2022-11-05T16:37:00.656Z,100528.34
2022-11-05T16:39:28.539Z,100514.91
2022-11-05T16:41:56.551Z,100529.75
2022-11-05T16:44:24.507Z,100533.16
2022-11-05T16:46:52.488Z,100530.44
2022-11-05T16:49:21.888Z,100533.75
2022-11-05T16:51:49.823Z,100531.88
2022-11-05T16:54:17.642Z,100512.38
2022-11-05T16:56:47.434Z,100517.50
2022-11-05T16:59:15.403Z,100522.88
2022-11-05T17:01:44.376Z,100512.16
2022-11-05T17:04:14.144Z,100520.75
2022-11-05T17:06:43.835Z,100528.59
2022-11-05T17:09:11.809Z,100514.47
2022-11-05T17:11:39.853Z,100528.41
2022-11-05T17:14:10.647Z,100527.56
2022-11-05T17:16:39.475Z,100502.78
2022-11-05T17:19:08.253Z,100511.81
2022-11-05T17:21:36.819Z,100537.44
2022-11-05T17:24:06.915Z,100529.69
2022-11-05T17:26:34.883Z,100514.47
2022-11-05T17:29:02.879Z,100500.25
2022-11-05T17:31:30.818Z,100529.53
2022-11-05T17:33:59.749Z,100518.75
2022-11-05T17:36:27.851Z,100522.25
2022-11-05T17:38:55.674Z,100528.31
2022-11-05T17:41:25.485Z,100523.88
2022-11-05T17:43:56.057Z,100529.03
2022-11-05T17:46:25.629Z,100515.59
2022-11-05T17:48:53.519Z,100528.00
2022-11-05T17:51:21.656Z,100517.25
2022-11-05T17:53:50.159Z,100532.09
2022-11-05T17:56:29.189Z,100515.91
2022-11-05T17:59:03.510Z,100538.56
2022-11-05T18:01:33.960Z,100478.22
2022-11-05T18:04:08.664Z,100533.94
2022-11-05T18:06:37.382Z,100554.22
2022-11-05T18:09:06.198Z,100553.28
2022-11-05T18:11:34.450Z,100549.78
2022-11-05T18:14:04.000Z,100546.28
2022-11-05T18:16:32.144Z,100553.22
2022-11-05T18:19:00.050Z,100546.22
2022-11-05T18:21:28.037Z,100544.38
2022-11-05T18:23:56.356Z,100498.19
2022-11-05T18:26:26.591Z,100540.69
2022-11-05T18:28:54.599Z,100544.28
2022-11-05T18:31:24.084Z,100541.50
2022-11-05T18:33:52.669Z,100544.13
2022-11-05T18:36:21.527Z,100547.06
2022-11-05T18:38:50.264Z,100454.66
2022-11-05T18:41:19.178Z,100548.00
2022-11-05T18:43:47.424Z,100550.59
2022-11-05T18:46:35.856Z,100553.22
2022-11-05T18:49:04.737Z,100526.59
2022-11-05T18:51:32.679Z,100545.28
2022-11-05T18:54:00.675Z,100546.13
2022-11-05T18:56:28.545Z,100550.38
2022-11-05T18:59:15.084Z,100513.16
2022-11-05T19:01:44.702Z,100522.81
2022-11-05T19:04:14.166Z,100544.84
2022-11-05T19:06:42.778Z,100543.06
2022-11-05T19:09:12.106Z,100547.34
2022-11-05T19:11:41.195Z,100556.84
2022-11-05T19:14:09.492Z,100510.63
2022-11-05T19:16:37.767Z,100524.84
2022-11-05T19:19:07.795Z,100554.03
2022-11-05T19:21:37.131Z,100548.47
2022-11-05T19:24:05.662Z,100532.56
2022-11-05T19:26:33.898Z,100543.16
2022-11-05T19:29:03.739Z,100553.03
2022-11-05T19:31:33.453Z,100534.28
2022-11-05T19:34:03.163Z,100541.22
2022-11-05T19:36:31.204Z,100560.56
2022-11-05T19:39:06.511Z,100562.25
2022-11-05T19:41:34.408Z,100568.25
2022-11-05T19:44:02.693Z,100565.56
2022-11-05T19:46:31.651Z,100562.97
2022-11-05T19:49:00.873Z,100571.72
2022-11-05T19:51:30.592Z,100575.16
2022-11-05T19:54:01.643Z,100551.31
2022-11-05T19:56:32.680Z,100560.31
2022-11-05T19:59:01.440Z,100573.94
2022-11-05T20:01:30.979Z,100568.63
2022-11-05T20:03:59.740Z,100576.06
2022-11-05T20:06:32.002Z,100560.13
2022-11-05T20:11:53.874Z,100563.00
2022-11-05T20:14:21.823Z,100541.66
2022-11-05T20:16:50.382Z,100575.38
2022-11-05T20:19:21.631Z,100581.75
2022-11-05T20:21:49.947Z,100592.09
2022-11-05T20:24:25.041Z,100581.53
2022-11-05T20:26:54.198Z,100585.78
2022-11-05T20:29:22.562Z,100579.50
2022-11-05T20:31:51.033Z,100584.00
2022-11-05T20:34:18.879Z,100593.59
2022-11-05T20:36:47.087Z,100576.94
2022-11-05T20:39:15.085Z,100590.16
2022-11-05T20:41:44.347Z,100586.66
2022-11-05T20:44:12.514Z,100589.31
2022-11-05T20:46:40.446Z,100589.25
2022-11-05T20:49:08.280Z,100594.47
2022-11-05T20:51:36.216Z,100592.59
2022-11-05T20:54:05.428Z,100459.28
2022-11-05T20:56:35.580Z,100591.66
2022-11-05T20:59:05.847Z,100591.50
2022-11-05T21:01:35.004Z,100587.88
2022-11-05T21:04:04.344Z,100546.88
2022-11-05T21:06:33.832Z,100579.72
2022-11-05T21:09:02.039Z,100591.03
2022-11-05T21:11:50.147Z,100589.31
2022-11-05T21:14:19.522Z,100587.44
2022-11-05T21:16:47.410Z,100552.63
2022-11-05T21:19:16.265Z,100591.66
2022-11-05T21:21:44.201Z,100589.00
2022-11-05T21:24:12.179Z,100580.06
2022-11-05T21:26:40.210Z,100585.44
2022-11-05T21:29:08.587Z,100588.00
2022-11-05T21:31:38.757Z,100591.47
2022-11-05T21:34:06.636Z,100591.44
2022-11-05T21:36:35.438Z,100583.53
2022-11-05T21:39:06.622Z,100566.44
2022-11-05T21:41:37.570Z,100586.03
2022-11-05T21:44:05.539Z,100585.88
2022-11-05T21:46:33.418Z,100588.31
2022-11-05T21:49:02.673Z,100589.13
2022-11-05T21:51:48.044Z,100581.19
2022-11-05T21:54:33.632Z,100598.38
2022-11-05T21:57:19.072Z,100560.25
2022-11-05T21:59:51.807Z,100583.28
2022-11-05T22:02:22.140Z,100601.94
2022-11-05T22:04:52.832Z,100602.00
2022-11-05T22:07:22.329Z,100594.78
2022-11-05T22:09:50.847Z,100614.31
2022-11-05T22:12:18.893Z,100610.00
2022-11-05T22:14:46.743Z,100617.88
2022-11-05T22:17:15.512Z,100598.63
2022-11-05T22:19:44.014Z,100616.22
2022-11-05T22:22:13.973Z,100613.59
2022-11-05T22:24:42.924Z,100611.72
2022-11-05T22:27:15.058Z,100625.09
2022-11-05T22:29:43.268Z,100634.81
2022-11-05T22:32:12.095Z,100624.63
2022-11-05T22:34:39.956Z,100632.59
2022-11-05T22:37:07.979Z,100594.75
2022-11-05T22:39:37.214Z,100627.63
2022-11-05T22:42:08.890Z,100616.53
2022-11-05T22:44:37.533Z,100599.94
2022-11-05T22:47:06.188Z,100622.31
2022-11-05T22:49:34.441Z,100631.28
2022-11-05T22:52:02.464Z,100627.06
2022-11-05T22:54:35.087Z,100637.56
2022-11-05T22:57:07.696Z,100631.41
2022-11-05T22:59:35.565Z,100580.66
2022-11-05T23:02:09.229Z,100631.41
2022-11-05T23:04:38.738Z,100578.16
2022-11-05T23:07:27.651Z,100623.63
2022-11-05T23:10:13.837Z,100625.13
2022-11-05T23:12:44.677Z,100638.50
2022-11-05T23:15:34.532Z,100633.97
2022-11-05T23:18:20.353Z,100618.25
2022-11-05T23:21:06.532Z,100636.81
2022-11-05T23:23:51.627Z,100609.41
2022-11-05T23:26:48.301Z,100631.59
2022-11-05T23:29:17.685Z,100628.16
2022-11-05T23:32:03.406Z,100594.22
2022-11-05T23:34:31.482Z,100633.47
2022-11-05T23:37:17.319Z,100626.59
2022-11-05T23:39:45.170Z,100625.75
2022-11-05T23:42:30.927Z,100614.16
2022-11-05T23:45:17.436Z,100625.84
2022-11-05T23:48:02.958Z,100616.16
2022-11-05T23:50:35.551Z,100613.47
2022-11-05T23:53:05.191Z,100604.75
2022-11-05T23:55:33.072Z,100636.72
2022-11-05T23:58:00.925Z,100634.94
